sensor_id;sensor_type;location;lat;lon;timestamp;P1;durP1;ratioP1;P2;durP2;ratioP2
8319;SDS011;4197;42.130;24.746;2023-03-26T00:01:26;19.47;;;16.07;;
8319;SDS011;4197;42.130;24.746;2023-03-26T00:04:00;20.67;;;15.87;;
8319;SDS011;4197;42.130;24.746;2023-03-26T00:06:30;19.90;;;15.70;;
8319;SDS011;4197;42.130;24.746;2023-03-26T00:09:02;16.73;;;14.50;;
8319;SDS011;4197;42.130;24.746;2023-03-26T00:11:31;18.30;;;14.37;;
8319;SDS011;4197;42.130;24.746;2023-03-26T00:14:01;17.30;;;13.90;;
8319;SDS011;4197;42.130;24.746;2023-03-26T00:16:31;17.10;;;14.30;;
8319;SDS011;4197;42.130;24.746;2023-03-26T00:19:01;16.50;;;14.80;;
8319;SDS011;4197;42.130;24.746;2023-03-26T00:21:29;17.03;;;13.97;;
8319;SDS011;4197;42.130;24.746;2023-03-26T00:23:58;18.17;;;13.83;;
8319;SDS011;4197;42.130;24.746;2023-03-26T00:26:30;17.03;;;15.23;;
8319;SDS011;4197;42.130;24.746;2023-03-26T00:28:59;18.93;;;15.20;;
8319;SDS011;4197;42.130;24.746;2023-03-26T00:31:29;21.17;;;15.43;;
8319;SDS011;4197;42.130;24.746;2023-03-26T00:33:58;18.33;;;15.67;;
8319;SDS011;4197;42.130;24.746;2023-03-26T00:36:30;18.27;;;15.50;;
8319;SDS011;4197;42.130;24.746;2023-03-26T00:39:02;22.00;;;16.97;;
8319;SDS011;4197;42.130;24.746;2023-03-26T00:41:31;19.73;;;15.93;;
8319;SDS011;4197;42.130;24.746;2023-03-26T00:44:02;21.50;;;18.03;;
8319;SDS011;4197;42.130;24.746;2023-03-26T00:46:31;26.17;;;18.80;;
8319;SDS011;4197;42.130;24.746;2023-03-26T00:48:59;22.03;;;17.60;;
8319;SDS011;4197;42.130;24.746;2023-03-26T00:51:30;23.03;;;18.27;;
8319;SDS011;4197;42.130;24.746;2023-03-26T00:53:59;23.57;;;18.97;;
8319;SDS011;4197;42.130;24.746;2023-03-26T00:56:29;20.27;;;17.67;;
8319;SDS011;4197;42.130;24.746;2023-03-26T00:58:57;21.53;;;18.33;;
8319;SDS011;4197;42.130;24.746;2023-03-26T01:01:26;21.43;;;17.53;;
8319;SDS011;4197;42.130;24.746;2023-03-26T01:03:56;20.27;;;16.50;;
8319;SDS011;4197;42.130;24.746;2023-03-26T01:06:46;18.47;;;15.47;;
8319;SDS011;4197;42.130;24.746;2023-03-26T01:09:17;19.70;;;15.67;;
8319;SDS011;4197;42.130;24.746;2023-03-26T01:11:47;18.10;;;15.37;;
8319;SDS011;4197;42.130;24.746;2023-03-26T01:14:17;17.67;;;14.23;;
8319;SDS011;4197;42.130;24.746;2023-03-26T01:16:49;16.70;;;13.23;;
8319;SDS011;4197;42.130;24.746;2023-03-26T01:19:20;15.80;;;13.53;;
8319;SDS011;4197;42.130;24.746;2023-03-26T01:21:57;15.33;;;12.13;;
8319;SDS011;4197;42.130;24.746;2023-03-26T01:24:27;13.97;;;12.43;;
8319;SDS011;4197;42.130;24.746;2023-03-26T01:29:55;15.40;;;12.00;;
8319;SDS011;4197;42.130;24.746;2023-03-26T01:32:33;16.03;;;12.17;;
8319;SDS011;4197;42.130;24.746;2023-03-26T01:35:16;14.87;;;12.23;;
8319;SDS011;4197;42.130;24.746;2023-03-26T01:37:57;13.90;;;12.13;;
8319;SDS011;4197;42.130;24.746;2023-03-26T01:40:46;13.27;;;11.63;;
8319;SDS011;4197;42.130;24.746;2023-03-26T01:43:29;14.00;;;11.80;;
8319;SDS011;4197;42.130;24.746;2023-03-26T01:46:04;12.57;;;10.50;;
8319;SDS011;4197;42.130;24.746;2023-03-26T01:48:34;12.47;;;9.93;;
8319;SDS011;4197;42.130;24.746;2023-03-26T01:51:05;14.97;;;10.27;;
8319;SDS011;4197;42.130;24.746;2023-03-26T01:53:36;10.47;;;9.37;;
8319;SDS011;4197;42.130;24.746;2023-03-26T01:56:11;12.90;;;10.43;;
8319;SDS011;4197;42.130;24.746;2023-03-26T01:58:49;11.57;;;10.17;;
8319;SDS011;4197;42.130;24.746;2023-03-26T02:01:28;11.13;;;9.40;;
8319;SDS011;4197;42.130;24.746;2023-03-26T02:04:00;8.63;;;7.73;;
8319;SDS011;4197;42.130;24.746;2023-03-26T02:06:36;9.37;;;7.07;;
8319;SDS011;4197;42.130;24.746;2023-03-26T02:09:11;7.33;;;6.53;;
8319;SDS011;4197;42.130;24.746;2023-03-26T02:11:44;6.97;;;5.63;;
8319;SDS011;4197;42.130;24.746;2023-03-26T02:14:14;9.23;;;5.70;;
8319;SDS011;4197;42.130;24.746;2023-03-26T02:16:43;6.20;;;5.60;;
8319;SDS011;4197;42.130;24.746;2023-03-26T02:19:13;6.93;;;6.10;;
8319;SDS011;4197;42.130;24.746;2023-03-26T02:21:47;6.90;;;5.40;;
8319;SDS011;4197;42.130;24.746;2023-03-26T02:24:17;6.93;;;4.80;;
8319;SDS011;4197;42.130;24.746;2023-03-26T02:26:47;5.57;;;4.97;;
8319;SDS011;4197;42.130;24.746;2023-03-26T02:29:15;6.33;;;5.10;;
8319;SDS011;4197;42.130;24.746;2023-03-26T02:31:46;5.83;;;4.13;;
8319;SDS011;4197;42.130;24.746;2023-03-26T02:34:14;5.13;;;4.43;;
8319;SDS011;4197;42.130;24.746;2023-03-26T02:36:43;5.13;;;4.40;;
8319;SDS011;4197;42.130;24.746;2023-03-26T02:39:12;5.07;;;3.97;;
8319;SDS011;4197;42.130;24.746;2023-03-26T02:41:40;6.63;;;4.00;;
8319;SDS011;4197;42.130;24.746;2023-03-26T02:44:10;5.67;;;3.60;;
8319;SDS011;4197;42.130;24.746;2023-03-26T02:46:38;5.97;;;3.00;;
8319;SDS011;4197;42.130;24.746;2023-03-26T02:49:07;3.80;;;2.97;;
8319;SDS011;4197;42.130;24.746;2023-03-26T02:51:35;4.10;;;3.27;;
8319;SDS011;4197;42.130;24.746;2023-03-26T02:54:03;3.40;;;2.80;;
8319;SDS011;4197;42.130;24.746;2023-03-26T02:56:33;2.70;;;2.33;;
8319;SDS011;4197;42.130;24.746;2023-03-26T02:59:01;4.17;;;2.50;;
8319;SDS011;4197;42.130;24.746;2023-03-26T03:01:31;3.87;;;2.53;;
8319;SDS011;4197;42.130;24.746;2023-03-26T03:04:01;4.47;;;2.37;;
8319;SDS011;4197;42.130;24.746;2023-03-26T03:06:32;2.20;;;2.00;;
8319;SDS011;4197;42.130;24.746;2023-03-26T03:09:00;2.33;;;1.97;;
8319;SDS011;4197;42.130;24.746;2023-03-26T03:11:30;3.40;;;2.07;;
8319;SDS011;4197;42.130;24.746;2023-03-26T03:13:58;2.00;;;1.90;;
8319;SDS011;4197;42.130;24.746;2023-03-26T03:16:27;2.33;;;1.87;;
8319;SDS011;4197;42.130;24.746;2023-03-26T03:18:57;1.70;;;1.50;;
8319;SDS011;4197;42.130;24.746;2023-03-26T03:21:26;2.97;;;1.87;;
8319;SDS011;4197;42.130;24.746;2023-03-26T03:23:56;3.33;;;1.83;;
8319;SDS011;4197;42.130;24.746;2023-03-26T03:26:25;3.53;;;2.60;;
8319;SDS011;4197;42.130;24.746;2023-03-26T03:28:55;4.27;;;2.70;;
8319;SDS011;4197;42.130;24.746;2023-03-26T03:31:24;2.93;;;1.73;;
8319;SDS011;4197;42.130;24.746;2023-03-26T03:33:53;2.07;;;1.70;;
8319;SDS011;4197;42.130;24.746;2023-03-26T03:36:23;6.50;;;4.60;;
8319;SDS011;4197;42.130;24.746;2023-03-26T03:38:53;5.67;;;5.07;;
8319;SDS011;4197;42.130;24.746;2023-03-26T03:41:27;1.87;;;1.77;;
8319;SDS011;4197;42.130;24.746;2023-03-26T03:43:55;4.20;;;2.00;;
8319;SDS011;4197;42.130;24.746;2023-03-26T03:46:25;3.00;;;1.90;;
8319;SDS011;4197;42.130;24.746;2023-03-26T03:48:53;1.70;;;1.57;;
8319;SDS011;4197;42.130;24.746;2023-03-26T03:51:23;1.60;;;1.50;;
8319;SDS011;4197;42.130;24.746;2023-03-26T03:53:51;4.20;;;1.70;;
8319;SDS011;4197;42.130;24.746;2023-03-26T03:56:21;1.90;;;1.70;;
8319;SDS011;4197;42.130;24.746;2023-03-26T03:58:51;1.67;;;1.50;;
8319;SDS011;4197;42.130;24.746;2023-03-26T04:01:19;1.50;;;1.40;;
8319;SDS011;4197;42.130;24.746;2023-03-26T04:03:49;3.80;;;1.57;;
8319;SDS011;4197;42.130;24.746;2023-03-26T04:06:17;1.87;;;1.77;;
8319;SDS011;4197;42.130;24.746;2023-03-26T04:08:46;1.67;;;1.57;;
8319;SDS011;4197;42.130;24.746;2023-03-26T04:11:14;2.70;;;2.00;;
8319;SDS011;4197;42.130;24.746;2023-03-26T04:13:43;2.80;;;2.00;;
8319;SDS011;4197;42.130;24.746;2023-03-26T04:16:11;2.30;;;1.80;;
8319;SDS011;4197;42.130;24.746;2023-03-26T04:18:39;2.10;;;1.90;;
8319;SDS011;4197;42.130;24.746;2023-03-26T04:21:07;2.53;;;2.03;;
8319;SDS011;4197;42.130;24.746;2023-03-26T04:23:38;3.97;;;1.70;;
8319;SDS011;4197;42.130;24.746;2023-03-26T04:26:10;1.53;;;1.43;;
8319;SDS011;4197;42.130;24.746;2023-03-26T04:28:44;1.70;;;1.60;;
8319;SDS011;4197;42.130;24.746;2023-03-26T04:31:19;2.20;;;1.37;;
8319;SDS011;4197;42.130;24.746;2023-03-26T04:33:55;1.67;;;1.47;;
8319;SDS011;4197;42.130;24.746;2023-03-26T04:36:27;3.07;;;1.33;;
8319;SDS011;4197;42.130;24.746;2023-03-26T04:38:57;1.67;;;1.57;;
8319;SDS011;4197;42.130;24.746;2023-03-26T04:41:31;3.30;;;2.03;;
8319;SDS011;4197;42.130;24.746;2023-03-26T04:44:00;1.50;;;1.40;;
8319;SDS011;4197;42.130;24.746;2023-03-26T04:46:28;2.93;;;1.90;;
8319;SDS011;4197;42.130;24.746;2023-03-26T04:48:59;2.83;;;1.40;;
8319;SDS011;4197;42.130;24.746;2023-03-26T04:51:30;1.40;;;1.30;;
8319;SDS011;4197;42.130;24.746;2023-03-26T04:54:05;4.03;;;1.53;;
8319;SDS011;4197;42.130;24.746;2023-03-26T04:56:37;1.77;;;1.67;;
8319;SDS011;4197;42.130;24.746;2023-03-26T04:59:12;1.63;;;1.53;;
8319;SDS011;4197;42.130;24.746;2023-03-26T05:01:43;2.27;;;1.80;;
8319;SDS011;4197;42.130;24.746;2023-03-26T05:04:12;2.90;;;1.77;;
8319;SDS011;4197;42.130;24.746;2023-03-26T05:06:41;2.07;;;1.87;;
8319;SDS011;4197;42.130;24.746;2023-03-26T05:09:09;1.93;;;1.60;;
8319;SDS011;4197;42.130;24.746;2023-03-26T05:11:40;1.47;;;1.37;;
8319;SDS011;4197;42.130;24.746;2023-03-26T05:14:08;1.70;;;1.60;;
8319;SDS011;4197;42.130;24.746;2023-03-26T05:16:36;1.90;;;1.67;;
8319;SDS011;4197;42.130;24.746;2023-03-26T05:19:07;2.20;;;2.00;;
8319;SDS011;4197;42.130;24.746;2023-03-26T05:21:35;2.00;;;1.80;;
8319;SDS011;4197;42.130;24.746;2023-03-26T05:24:03;2.10;;;1.90;;
8319;SDS011;4197;42.130;24.746;2023-03-26T05:26:32;3.07;;;1.80;;
8319;SDS011;4197;42.130;24.746;2023-03-26T05:29:02;1.80;;;1.70;;
8319;SDS011;4197;42.130;24.746;2023-03-26T05:31:30;1.63;;;1.53;;
8319;SDS011;4197;42.130;24.746;2023-03-26T05:33:59;2.07;;;1.87;;
8319;SDS011;4197;42.130;24.746;2023-03-26T05:36:27;2.33;;;1.77;;
8319;SDS011;4197;42.130;24.746;2023-03-26T05:38:56;3.13;;;1.97;;
8319;SDS011;4197;42.130;24.746;2023-03-26T05:41:24;3.03;;;1.73;;
8319;SDS011;4197;42.130;24.746;2023-03-26T05:43:52;2.43;;;2.23;;
8319;SDS011;4197;42.130;24.746;2023-03-26T05:46:22;2.17;;;1.97;;
8319;SDS011;4197;42.130;24.746;2023-03-26T05:48:50;5.50;;;2.23;;
8319;SDS011;4197;42.130;24.746;2023-03-26T05:51:19;2.60;;;1.83;;
8319;SDS011;4197;42.130;24.746;2023-03-26T05:53:49;2.67;;;2.47;;
8319;SDS011;4197;42.130;24.746;2023-03-26T05:56:18;2.20;;;2.00;;
8319;SDS011;4197;42.130;24.746;2023-03-26T05:58:46;2.50;;;2.30;;
8319;SDS011;4197;42.130;24.746;2023-03-26T06:01:17;3.13;;;2.43;;
8319;SDS011;4197;42.130;24.746;2023-03-26T06:03:47;3.10;;;2.30;;
8319;SDS011;4197;42.130;24.746;2023-03-26T06:06:18;2.87;;;2.57;;
8319;SDS011;4197;42.130;24.746;2023-03-26T06:08:47;4.63;;;2.33;;
8319;SDS011;4197;42.130;24.746;2023-03-26T06:11:28;2.63;;;2.27;;
8319;SDS011;4197;42.130;24.746;2023-03-26T06:13:57;4.20;;;3.00;;
8319;SDS011;4197;42.130;24.746;2023-03-26T06:16:26;5.13;;;2.70;;
8319;SDS011;4197;42.130;24.746;2023-03-26T06:18:55;4.30;;;3.00;;
8319;SDS011;4197;42.130;24.746;2023-03-26T06:21:24;5.10;;;3.27;;
8319;SDS011;4197;42.130;24.746;2023-03-26T06:23:53;3.80;;;2.40;;
8319;SDS011;4197;42.130;24.746;2023-03-26T06:26:25;2.40;;;2.20;;
8319;SDS011;4197;42.130;24.746;2023-03-26T06:28:56;3.37;;;2.20;;
8319;SDS011;4197;42.130;24.746;2023-03-26T06:31:28;2.60;;;2.33;;
8319;SDS011;4197;42.130;24.746;2023-03-26T06:33:58;4.13;;;2.37;;
8319;SDS011;4197;42.130;24.746;2023-03-26T06:36:26;3.07;;;2.30;;
8319;SDS011;4197;42.130;24.746;2023-03-26T06:38:54;3.10;;;2.40;;
8319;SDS011;4197;42.130;24.746;2023-03-26T06:41:23;3.63;;;2.47;;
8319;SDS011;4197;42.130;24.746;2023-03-26T06:43:51;3.73;;;2.30;;
8319;SDS011;4197;42.130;24.746;2023-03-26T06:46:20;4.03;;;2.33;;
8319;SDS011;4197;42.130;24.746;2023-03-26T06:48:48;5.53;;;2.07;;
8319;SDS011;4197;42.130;24.746;2023-03-26T06:51:19;8.00;;;2.17;;
8319;SDS011;4197;42.130;24.746;2023-03-26T06:53:47;2.70;;;2.00;;
8319;SDS011;4197;42.130;24.746;2023-03-26T06:56:15;1.70;;;1.47;;
8319;SDS011;4197;42.130;24.746;2023-03-26T06:58:44;2.27;;;1.80;;
8319;SDS011;4197;42.130;24.746;2023-03-26T07:01:12;3.40;;;2.10;;
8319;SDS011;4197;42.130;24.746;2023-03-26T07:03:41;3.37;;;2.17;;
8319;SDS011;4197;42.130;24.746;2023-03-26T07:06:09;2.07;;;1.87;;
8319;SDS011;4197;42.130;24.746;2023-03-26T07:08:39;4.40;;;2.43;;
8319;SDS011;4197;42.130;24.746;2023-03-26T07:11:08;5.97;;;2.47;;
8319;SDS011;4197;42.130;24.746;2023-03-26T07:13:37;3.47;;;2.43;;
8319;SDS011;4197;42.130;24.746;2023-03-26T07:16:07;2.90;;;1.83;;
8319;SDS011;4197;42.130;24.746;2023-03-26T07:18:36;3.03;;;1.90;;
8319;SDS011;4197;42.130;24.746;2023-03-26T07:21:05;2.33;;;2.00;;
8319;SDS011;4197;42.130;24.746;2023-03-26T07:23:35;3.13;;;2.03;;
8319;SDS011;4197;42.130;24.746;2023-03-26T07:26:10;2.60;;;1.90;;
8319;SDS011;4197;42.130;24.746;2023-03-26T07:28:50;4.40;;;1.80;;
8319;SDS011;4197;42.130;24.746;2023-03-26T07:31:31;2.57;;;1.90;;
8319;SDS011;4197;42.130;24.746;2023-03-26T07:34:10;2.70;;;1.73;;
8319;SDS011;4197;42.130;24.746;2023-03-26T07:36:47;2.30;;;1.60;;
8319;SDS011;4197;42.130;24.746;2023-03-26T07:39:25;2.00;;;1.80;;
8319;SDS011;4197;42.130;24.746;2023-03-26T07:42:10;2.03;;;1.80;;
8319;SDS011;4197;42.130;24.746;2023-03-26T07:44:50;2.50;;;1.80;;
8319;SDS011;4197;42.130;24.746;2023-03-26T07:47:26;2.93;;;1.80;;
8319;SDS011;4197;42.130;24.746;2023-03-26T07:49:58;5.40;;;1.70;;
8319;SDS011;4197;42.130;24.746;2023-03-26T07:52:26;1.60;;;1.50;;
8319;SDS011;4197;42.130;24.746;2023-03-26T07:54:55;2.73;;;1.77;;
8319;SDS011;4197;42.130;24.746;2023-03-26T07:57:30;4.40;;;2.07;;
8319;SDS011;4197;42.130;24.746;2023-03-26T08:00:10;3.07;;;1.87;;
8319;SDS011;4197;42.130;24.746;2023-03-26T08:02:46;4.40;;;2.00;;
8319;SDS011;4197;42.130;24.746;2023-03-26T08:05:32;2.10;;;1.77;;
8319;SDS011;4197;42.130;24.746;2023-03-26T08:08:06;1.70;;;1.50;;
8319;SDS011;4197;42.130;24.746;2023-03-26T08:10:41;3.60;;;2.05;;
8319;SDS011;4197;42.130;24.746;2023-03-26T08:13:25;3.57;;;1.80;;
8319;SDS011;4197;42.130;24.746;2023-03-26T08:16:01;4.17;;;1.70;;
8319;SDS011;4197;42.130;24.746;2023-03-26T08:18:38;1.53;;;1.43;;
8319;SDS011;4197;42.130;24.746;2023-03-26T08:21:14;2.53;;;1.52;;
8319;SDS011;4197;42.130;24.746;2023-03-26T08:23:50;2.63;;;1.70;;
8319;SDS011;4197;42.130;24.746;2023-03-26T08:26:27;2.42;;;1.95;;
8319;SDS011;4197;42.130;24.746;2023-03-26T08:29:08;3.37;;;1.90;;
8319;SDS011;4197;42.130;24.746;2023-03-26T08:31:42;3.83;;;2.87;;
8319;SDS011;4197;42.130;24.746;2023-03-26T08:34:13;6.03;;;3.58;;
8319;SDS011;4197;42.130;24.746;2023-03-26T08:36:42;3.40;;;2.53;;
8319;SDS011;4197;42.130;24.746;2023-03-26T08:39:10;2.10;;;1.90;;
8319;SDS011;4197;42.130;24.746;2023-03-26T08:51:10;2.10;;;1.80;;
8319;SDS011;4197;42.130;24.746;2023-03-26T08:57:34;2.80;;;1.73;;
8319;SDS011;4197;42.130;24.746;2023-03-26T09:00:36;2.03;;;1.85;;
8319;SDS011;4197;42.130;24.746;2023-03-26T09:06:28;1.83;;;1.58;;
8319;SDS011;4197;42.130;24.746;2023-03-26T09:09:25;1.85;;;1.48;;
8319;SDS011;4197;42.130;24.746;2023-03-26T09:12:26;2.55;;;1.52;;
8319;SDS011;4197;42.130;24.746;2023-03-26T09:15:26;2.50;;;1.40;;
8319;SDS011;4197;42.130;24.746;2023-03-26T09:21:31;2.97;;;1.60;;
8319;SDS011;4197;42.130;24.746;2023-03-26T09:24:36;2.30;;;1.73;;
8319;SDS011;4197;42.130;24.746;2023-03-26T09:27:35;3.25;;;2.00;;
8319;SDS011;4197;42.130;24.746;2023-03-26T09:33:20;1.45;;;1.30;;
8319;SDS011;4197;42.130;24.746;2023-03-26T09:38:53;1.85;;;1.60;;
8319;SDS011;4197;42.130;24.746;2023-03-26T09:41:31;4.25;;;1.70;;
8319;SDS011;4197;42.130;24.746;2023-03-26T09:44:21;1.83;;;1.40;;
8319;SDS011;4197;42.130;24.746;2023-03-26T09:50:29;3.15;;;1.70;;
8319;SDS011;4197;42.130;24.746;2023-03-26T09:53:18;3.67;;;1.25;;
8319;SDS011;4197;42.130;24.746;2023-03-26T09:56:12;2.20;;;1.40;;
8319;SDS011;4197;42.130;24.746;2023-03-26T10:01:39;3.28;;;1.88;;
8319;SDS011;4197;42.130;24.746;2023-03-26T10:04:27;2.85;;;1.60;;
8319;SDS011;4197;42.130;24.746;2023-03-26T10:07:06;2.58;;;1.52;;
8319;SDS011;4197;42.130;24.746;2023-03-26T10:09:51;4.95;;;1.55;;
8319;SDS011;4197;42.130;24.746;2023-03-26T10:12:31;1.88;;;1.40;;
8319;SDS011;4197;42.130;24.746;2023-03-26T10:15:08;3.60;;;1.48;;
8319;SDS011;4197;42.130;24.746;2023-03-26T10:17:53;1.55;;;1.20;;
8319;SDS011;4197;42.130;24.746;2023-03-26T10:20:54;1.67;;;1.30;;
8319;SDS011;4197;42.130;24.746;2023-03-26T10:23:35;2.38;;;1.33;;
8319;SDS011;4197;42.130;24.746;2023-03-26T10:26:18;1.40;;;1.20;;
8319;SDS011;4197;42.130;24.746;2023-03-26T10:29:36;2.30;;;1.15;;
8319;SDS011;4197;42.130;24.746;2023-03-26T10:32:28;2.85;;;1.40;;
8319;SDS011;4197;42.130;24.746;2023-03-26T10:35:08;1.55;;;1.23;;
8319;SDS011;4197;42.130;24.746;2023-03-26T10:37:50;1.27;;;1.17;;
8319;SDS011;4197;42.130;24.746;2023-03-26T10:40:29;2.10;;;1.42;;
8319;SDS011;4197;42.130;24.746;2023-03-26T10:46:16;2.35;;;1.20;;
8319;SDS011;4197;42.130;24.746;2023-03-26T10:49:16;3.03;;;1.50;;
8319;SDS011;4197;42.130;24.746;2023-03-26T10:52:07;2.20;;;1.30;;
8319;SDS011;4197;42.130;24.746;2023-03-26T10:54:44;2.55;;;1.45;;
8319;SDS011;4197;42.130;24.746;2023-03-26T10:57:23;2.63;;;1.65;;
8319;SDS011;4197;42.130;24.746;2023-03-26T10:59:56;2.95;;;1.70;;
8319;SDS011;4197;42.130;24.746;2023-03-26T11:02:30;2.75;;;1.50;;
8319;SDS011;4197;42.130;24.746;2023-03-26T11:05:16;2.08;;;1.40;;
8319;SDS011;4197;42.130;24.746;2023-03-26T11:07:55;1.52;;;1.33;;
8319;SDS011;4197;42.130;24.746;2023-03-26T11:10:31;3.03;;;1.70;;
8319;SDS011;4197;42.130;24.746;2023-03-26T11:13:11;3.35;;;1.40;;
8319;SDS011;4197;42.130;24.746;2023-03-26T11:15:47;1.90;;;1.70;;
8319;SDS011;4197;42.130;24.746;2023-03-26T11:18:26;4.78;;;1.60;;
8319;SDS011;4197;42.130;24.746;2023-03-26T11:21:05;4.50;;;1.77;;
8319;SDS011;4197;42.130;24.746;2023-03-26T11:23:48;3.15;;;1.60;;
8319;SDS011;4197;42.130;24.746;2023-03-26T11:26:33;1.92;;;1.35;;
8319;SDS011;4197;42.130;24.746;2023-03-26T11:29:13;1.40;;;1.27;;
8319;SDS011;4197;42.130;24.746;2023-03-26T11:31:59;4.10;;;1.52;;
8319;SDS011;4197;42.130;24.746;2023-03-26T11:34:34;1.00;;;0.90;;
8319;SDS011;4197;42.130;24.746;2023-03-26T11:37:05;2.70;;;1.80;;
8319;SDS011;4197;42.130;24.746;2023-03-26T11:39:42;2.90;;;1.58;;
8319;SDS011;4197;42.130;24.746;2023-03-26T11:42:15;1.83;;;1.00;;
8319;SDS011;4197;42.130;24.746;2023-03-26T11:44:50;4.70;;;1.30;;
8319;SDS011;4197;42.130;24.746;2023-03-26T11:47:23;2.22;;;1.17;;
8319;SDS011;4197;42.130;24.746;2023-03-26T11:49:58;2.10;;;1.33;;
8319;SDS011;4197;42.130;24.746;2023-03-26T11:52:30;1.13;;;1.02;;
8319;SDS011;4197;42.130;24.746;2023-03-26T11:54:58;1.17;;;1.08;;
8319;SDS011;4197;42.130;24.746;2023-03-26T11:57:27;1.45;;;1.10;;
8319;SDS011;4197;42.130;24.746;2023-03-26T12:00:00;1.23;;;1.10;;
8319;SDS011;4197;42.130;24.746;2023-03-26T12:02:37;1.10;;;1.00;;
8319;SDS011;4197;42.130;24.746;2023-03-26T12:05:19;1.95;;;1.23;;
8319;SDS011;4197;42.130;24.746;2023-03-26T12:07:53;1.45;;;1.08;;
8319;SDS011;4197;42.130;24.746;2023-03-26T12:10:27;3.03;;;1.20;;
8319;SDS011;4197;42.130;24.746;2023-03-26T12:13:00;1.65;;;1.10;;
8319;SDS011;4197;42.130;24.746;2023-03-26T12:15:32;2.00;;;0.98;;
8319;SDS011;4197;42.130;24.746;2023-03-26T12:18:19;1.55;;;1.20;;
8319;SDS011;4197;42.130;24.746;2023-03-26T12:21:02;1.45;;;1.10;;
8319;SDS011;4197;42.130;24.746;2023-03-26T12:23:36;3.08;;;1.10;;
8319;SDS011;4197;42.130;24.746;2023-03-26T12:26:10;1.65;;;0.90;;
8319;SDS011;4197;42.130;24.746;2023-03-26T12:28:45;1.35;;;0.98;;
8319;SDS011;4197;42.130;24.746;2023-03-26T12:31:15;2.53;;;1.48;;
8319;SDS011;4197;42.130;24.746;2023-03-26T12:33:50;2.95;;;1.45;;
8319;SDS011;4197;42.130;24.746;2023-03-26T12:36:33;1.20;;;1.10;;
8319;SDS011;4197;42.130;24.746;2023-03-26T12:39:06;1.50;;;1.10;;
8319;SDS011;4197;42.130;24.746;2023-03-26T12:42:23;2.08;;;1.10;;
8319;SDS011;4197;42.130;24.746;2023-03-26T12:45:13;1.70;;;1.00;;
8319;SDS011;4197;42.130;24.746;2023-03-26T12:47:42;1.42;;;0.90;;
8319;SDS011;4197;42.130;24.746;2023-03-26T12:50:30;1.95;;;1.00;;
8319;SDS011;4197;42.130;24.746;2023-03-26T12:53:20;2.22;;;1.00;;
8319;SDS011;4197;42.130;24.746;2023-03-26T12:56:11;2.00;;;1.15;;
8319;SDS011;4197;42.130;24.746;2023-03-26T13:01:46;4.07;;;1.45;;
8319;SDS011;4197;42.130;24.746;2023-03-26T13:04:28;1.25;;;1.15;;
8319;SDS011;4197;42.130;24.746;2023-03-26T13:07:32;1.90;;;1.10;;
8319;SDS011;4197;42.130;24.746;2023-03-26T13:10:27;2.55;;;1.05;;
8319;SDS011;4197;42.130;24.746;2023-03-26T13:13:08;1.30;;;1.00;;
8319;SDS011;4197;42.130;24.746;2023-03-26T13:15:49;3.90;;;1.17;;
8319;SDS011;4197;42.130;24.746;2023-03-26T13:18:21;3.70;;;1.17;;
8319;SDS011;4197;42.130;24.746;2023-03-26T13:20:59;1.52;;;1.27;;
8319;SDS011;4197;42.130;24.746;2023-03-26T13:23:37;1.50;;;1.15;;
8319;SDS011;4197;42.130;24.746;2023-03-26T13:26:15;0.93;;;0.93;;
8319;SDS011;4197;42.130;24.746;2023-03-26T13:28:56;1.33;;;1.02;;
8319;SDS011;4197;42.130;24.746;2023-03-26T13:31:33;2.63;;;1.10;;
8319;SDS011;4197;42.130;24.746;2023-03-26T13:34:08;9.13;;;7.47;;
8319;SDS011;4197;42.130;24.746;2023-03-26T13:36:47;3.58;;;2.35;;
8319;SDS011;4197;42.130;24.746;2023-03-26T13:39:28;2.42;;;1.70;;
8319;SDS011;4197;42.130;24.746;2023-03-26T13:42:06;2.97;;;2.67;;
8319;SDS011;4197;42.130;24.746;2023-03-26T13:44:50;1.92;;;1.30;;
8319;SDS011;4197;42.130;24.746;2023-03-26T13:47:32;1.73;;;1.27;;
8319;SDS011;4197;42.130;24.746;2023-03-26T13:50:05;1.60;;;1.15;;
8319;SDS011;4197;42.130;24.746;2023-03-26T13:52:42;2.22;;;1.15;;
8319;SDS011;4197;42.130;24.746;2023-03-26T13:55:17;3.08;;;1.27;;
8319;SDS011;4197;42.130;24.746;2023-03-26T13:57:55;2.55;;;1.30;;
8319;SDS011;4197;42.130;24.746;2023-03-26T14:00:35;1.33;;;1.05;;
8319;SDS011;4197;42.130;24.746;2023-03-26T14:03:23;1.30;;;1.20;;
8319;SDS011;4197;42.130;24.746;2023-03-26T14:05:56;2.30;;;1.10;;
8319;SDS011;4197;42.130;24.746;2023-03-26T14:08:28;2.20;;;1.17;;
8319;SDS011;4197;42.130;24.746;2023-03-26T14:11:01;1.50;;;1.10;;
8319;SDS011;4197;42.130;24.746;2023-03-26T14:13:37;1.75;;;1.48;;
8319;SDS011;4197;42.130;24.746;2023-03-26T14:16:13;2.45;;;1.17;;
8319;SDS011;4197;42.130;24.746;2023-03-26T14:18:46;2.83;;;1.50;;
8319;SDS011;4197;42.130;24.746;2023-03-26T14:21:23;1.75;;;1.30;;
8319;SDS011;4197;42.130;24.746;2023-03-26T14:24:11;1.60;;;1.50;;
8319;SDS011;4197;42.130;24.746;2023-03-26T14:26:58;1.35;;;1.17;;
8319;SDS011;4197;42.130;24.746;2023-03-26T14:29:49;2.25;;;1.30;;
8319;SDS011;4197;42.130;24.746;2023-03-26T14:32:27;3.30;;;1.63;;
8319;SDS011;4197;42.130;24.746;2023-03-26T14:35:14;2.53;;;1.10;;
8319;SDS011;4197;42.130;24.746;2023-03-26T14:46:41;2.75;;;1.30;;
8319;SDS011;4197;42.130;24.746;2023-03-26T14:49:25;1.48;;;1.10;;
8319;SDS011;4197;42.130;24.746;2023-03-26T14:52:05;2.15;;;1.58;;
8319;SDS011;4197;42.130;24.746;2023-03-26T14:54:40;1.80;;;1.20;;
8319;SDS011;4197;42.130;24.746;2023-03-26T14:57:19;1.65;;;1.20;;
8319;SDS011;4197;42.130;24.746;2023-03-26T15:03:28;1.77;;;1.20;;
8319;SDS011;4197;42.130;24.746;2023-03-26T15:18:45;2.05;;;1.10;;
8319;SDS011;4197;42.130;24.746;2023-03-26T15:28:08;2.50;;;1.40;;
8319;SDS011;4197;42.130;24.746;2023-03-26T15:31:06;1.38;;;1.10;;
8319;SDS011;4197;42.130;24.746;2023-03-26T15:34:01;1.50;;;1.10;;
8319;SDS011;4197;42.130;24.746;2023-03-26T15:39:51;1.73;;;1.30;;
8319;SDS011;4197;42.130;24.746;2023-03-26T15:42:43;2.00;;;1.20;;
8319;SDS011;4197;42.130;24.746;2023-03-26T15:45:29;2.67;;;1.70;;
8319;SDS011;4197;42.130;24.746;2023-03-26T15:48:13;2.13;;;1.52;;
8319;SDS011;4197;42.130;24.746;2023-03-26T15:51:00;2.50;;;1.70;;
8319;SDS011;4197;42.130;24.746;2023-03-26T15:53:42;2.28;;;1.50;;
8319;SDS011;4197;42.130;24.746;2023-03-26T15:56:23;2.53;;;1.60;;
8319;SDS011;4197;42.130;24.746;2023-03-26T15:59:04;2.75;;;1.50;;
8319;SDS011;4197;42.130;24.746;2023-03-26T16:01:41;1.77;;;1.23;;
8319;SDS011;4197;42.130;24.746;2023-03-26T16:04:18;2.22;;;1.50;;
8319;SDS011;4197;42.130;24.746;2023-03-26T16:07:00;4.82;;;1.50;;
8319;SDS011;4197;42.130;24.746;2023-03-26T16:09:44;2.22;;;1.50;;
8319;SDS011;4197;42.130;24.746;2023-03-26T16:12:27;1.88;;;1.20;;
8319;SDS011;4197;42.130;24.746;2023-03-26T16:21:01;2.05;;;1.40;;
8319;SDS011;4197;42.130;24.746;2023-03-26T16:24:10;2.17;;;1.50;;
8319;SDS011;4197;42.130;24.746;2023-03-26T16:26:51;3.85;;;1.88;;
8319;SDS011;4197;42.130;24.746;2023-03-26T16:30:01;1.98;;;1.77;;
8319;SDS011;4197;42.130;24.746;2023-03-26T16:32:43;3.15;;;1.80;;
8319;SDS011;4197;42.130;24.746;2023-03-26T16:38:16;4.00;;;1.40;;
8319;SDS011;4197;42.130;24.746;2023-03-26T16:40:55;2.25;;;1.50;;
8319;SDS011;4197;42.130;24.746;2023-03-26T16:43:37;4.35;;;2.10;;
8319;SDS011;4197;42.130;24.746;2023-03-26T16:46:17;3.40;;;2.00;;
8319;SDS011;4197;42.130;24.746;2023-03-26T16:48:56;3.50;;;1.92;;
8319;SDS011;4197;42.130;24.746;2023-03-26T16:51:33;2.97;;;2.00;;
8319;SDS011;4197;42.130;24.746;2023-03-26T16:54:17;2.75;;;1.80;;
8319;SDS011;4197;42.130;24.746;2023-03-26T16:56:54;3.63;;;2.38;;
8319;SDS011;4197;42.130;24.746;2023-03-26T16:59:37;5.25;;;2.00;;
8319;SDS011;4197;42.130;24.746;2023-03-26T17:02:32;4.45;;;2.10;;
8319;SDS011;4197;42.130;24.746;2023-03-26T17:05:15;4.35;;;2.40;;
8319;SDS011;4197;42.130;24.746;2023-03-26T17:07:47;3.28;;;1.90;;
8319;SDS011;4197;42.130;24.746;2023-03-26T17:10:28;4.25;;;2.17;;
8319;SDS011;4197;42.130;24.746;2023-03-26T17:13:05;4.50;;;2.00;;
8319;SDS011;4197;42.130;24.746;2023-03-26T17:15:40;4.85;;;2.35;;